Time;durP1;ratioP1;P1;durP2;ratioP2;P2;SDS_P1;SDS_P2;PMS_P1;PMS_P2;Temp;Humidity;BMP_temperature;BMP_pressure;BME280_temperature;BME280_humidity;BME280_pressure;Samples;Min_cycle;Max_cycle;Signal;HPM_P1;HPM_P2
2022/05/15 00:01:41;;;;;;;5.17;4.60;;;;;;;14.29;77.81;98403.59;4132320;28;20639;-92
2022/05/15 00:03:45;;;;;;;4.70;4.00;;;;;;;14.28;76.72;98406.34;4145160;28;21259;-92
2022/05/15 00:05:54;;;;;;;5.00;4.40;;;;;;;14.26;76.71;98408.25;4113605;28;20660;-92
2022/05/15 00:07:57;;;;;;;5.43;4.50;;;;;;;14.26;77.31;98398.59;4115849;28;20695;-92
2022/05/15 00:10:01;;;;;;;5.50;4.50;;;;;;;14.27;77.16;98399.44;4129030;28;20643;-92
2022/05/15 00:12:05;;;;;;;6.73;3.90;;;;;;;14.25;77.77;98398.69;4143562;28;21056;-92
2022/05/15 00:14:09;;;;;;;5.93;4.07;;;;;;;14.24;77.61;98397.06;4130766;28;21067;-92
2022/05/15 00:16:12;;;;;;;6.07;4.10;;;;;;;14.22;77.41;98393.69;4145928;28;20669;-92
2022/05/15 00:18:16;;;;;;;8.27;4.23;;;;;;;14.17;77.69;98391.44;4133009;28;21007;-92
2022/05/15 00:20:20;;;;;;;8.60;4.43;;;;;;;14.14;76.55;98393.47;4131150;28;20619;-92
2022/05/15 00:22:25;;;;;;;5.87;3.97;;;;;;;14.09;76.60;98382.50;4113586;28;20716;-92
2022/05/15 00:24:29;;;;;;;6.00;3.87;;;;;;;14.02;77.85;98378.66;4129752;28;20638;-92
2022/05/15 00:26:32;;;;;;;5.83;4.97;;;;;;;13.93;78.26;98384.59;4144606;28;20630;-92
2022/05/15 00:28:36;;;;;;;7.67;4.87;;;;;;;13.85;77.55;98386.97;4128767;28;20677;-92
2022/05/15 00:30:39;;;;;;;6.33;5.33;;;;;;;13.77;77.69;98381.50;4113277;28;20737;-92
2022/05/15 00:32:43;;;;;;;6.40;5.13;;;;;;;13.72;78.84;98382.78;4119536;28;20682;-92
2022/05/15 00:34:46;;;;;;;6.83;5.13;;;;;;;13.75;78.18;98387.78;4133365;28;20638;-92
2022/05/15 00:36:49;;;;;;;7.27;4.47;;;;;;;13.76;77.74;98382.44;4129119;28;20639;-92
2022/05/15 00:38:54;;;;;;;6.10;4.53;;;;;;;13.79;78.14;98389.25;4127961;28;20631;-92
2022/05/15 00:40:59;;;;;;;5.80;4.40;;;;;;;13.80;77.62;98383.03;4127736;28;20647;-92
2022/05/15 00:43:02;;;;;;;5.50;4.30;;;;;;;13.82;77.94;98383.78;4128717;28;20686;-91
2022/05/15 00:45:11;;;;;;;5.23;3.80;;;;;;;13.84;77.44;98381.84;4146719;28;20724;-92
2022/05/15 00:47:15;;;;;;;7.10;4.17;;;;;;;13.83;78.82;98388.03;4137076;28;21223;-92
2022/05/15 00:49:18;;;;;;;6.30;4.37;;;;;;;13.79;77.96;98386.63;4134145;28;20643;-92
2022/05/15 00:51:26;;;;;;;4.77;4.07;;;;;;;13.81;77.86;98379.47;4126761;28;20623;-92
2022/05/15 00:53:29;;;;;;;6.40;4.10;;;;;;;13.83;77.85;98375.78;4127966;28;21223;-92
2022/05/15 00:55:38;;;;;;;4.77;4.13;;;;;;;13.80;78.75;98383.03;4123824;28;20638;-92
2022/05/15 00:57:44;;;;;;;4.50;4.10;;;;;;;13.65;79.07;98381.56;4108130;28;20682;-92
2022/05/15 00:59:59;;;;;;;5.50;4.07;;;;;;;13.54;78.95;98378.94;4108187;28;20627;-92
2022/05/15 01:02:04;;;;;;;4.93;4.30;;;;;;;13.53;79.06;98379.06;4132673;28;21146;-92
2022/05/15 01:04:08;;;;;;;6.30;4.40;;;;;;;13.51;78.87;98370.47;4131869;28;20663;-92
2022/05/15 01:06:12;;;;;;;6.03;4.00;;;;;;;13.51;78.99;98371.31;4145742;28;20712;-92
2022/05/15 01:08:16;;;;;;;5.57;4.17;;;;;;;13.54;79.81;98372.88;4130693;28;20706;-91
2022/05/15 01:10:22;;;;;;;5.60;4.50;;;;;;;13.55;80.35;98371.94;4113411;28;20647;-91
2022/05/15 01:12:27;;;;;;;6.30;4.40;;;;;;;13.56;79.03;98363.09;4128070;28;20660;-92
2022/05/15 01:14:31;;;;;;;5.63;4.00;;;;;;;13.60;79.35;98361.91;4145717;28;20636;-92
2022/05/15 01:16:36;;;;;;;6.63;4.50;;;;;;;13.61;77.97;98366.22;4114271;28;20640;-92
2022/05/15 01:18:40;;;;;;;5.70;4.70;;;;;;;13.59;79.12;98368.97;4113136;28;20666;-92
2022/05/15 01:20:44;;;;;;;5.00;4.23;;;;;;;13.58;79.43;98361.22;4114840;28;20689;-92
2022/05/15 01:22:50;;;;;;;6.03;4.90;;;;;;;13.53;79.22;98363.31;4141877;28;20605;-92
2022/05/15 01:24:54;;;;;;;4.83;4.30;;;;;;;13.52;79.72;98356.44;4132123;28;20626;-92
2022/05/15 01:26:58;;;;;;;5.63;4.50;;;;;;;13.50;78.76;98361.78;4129659;28;20704;-92
2022/05/15 01:29:03;;;;;;;7.70;5.10;;;;;;;13.46;78.77;98360.34;4144523;28;20667;-91
2022/05/15 01:31:07;;;;;;;6.07;4.87;;;;;;;13.41;79.62;98353.78;4111915;28;20775;-91
2022/05/15 01:33:11;;;;;;;5.47;4.50;;;;;;;13.40;79.61;98355.56;4111818;28;22657;-91
2022/05/15 01:35:14;;;;;;;6.90;4.07;;;;;;;13.37;79.61;98352.34;4127390;28;20639;-92
2022/05/15 01:37:18;;;;;;;6.33;4.77;;;;;;;13.33;79.19;98353.53;4143064;28;20689;-92
2022/05/15 01:39:23;;;;;;;5.63;4.67;;;;;;;13.30;80.49;98357.19;4132306;28;21045;-92
2022/05/15 01:41:27;;;;;;;5.57;4.30;;;;;;;13.28;80.01;98348.63;4128677;28;21074;-92
2022/05/15 01:43:30;;;;;;;6.40;4.50;;;;;;;13.27;80.05;98359.22;4132557;28;20635;-92
2022/05/15 01:45:34;;;;;;;4.93;4.10;;;;;;;13.25;79.65;98358.50;4130041;28;21097;-92
2022/05/15 01:47:38;;;;;;;10.23;5.23;;;;;;;13.21;80.28;98357.91;4129533;28;20673;-92
2022/05/15 01:49:43;;;;;;;7.13;4.17;;;;;;;13.18;80.16;98354.66;4111305;28;20735;-92
2022/05/15 01:51:47;;;;;;;7.53;4.23;;;;;;;13.16;81.50;98359.19;4130221;28;21293;-92
2022/05/15 01:53:51;;;;;;;5.60;4.50;;;;;;;13.14;81.29;98355.84;4129898;28;20690;-92
2022/05/15 01:55:56;;;;;;;5.80;4.47;;;;;;;13.15;79.92;98356.69;4111937;28;20698;-92
2022/05/15 01:58:00;;;;;;;7.30;4.20;;;;;;;13.12;81.29;98355.13;4129818;28;20643;-91
2022/05/15 02:00:04;;;;;;;4.43;4.03;;;;;;;13.13;80.94;98358.59;4114417;28;21577;-92
2022/05/15 02:02:15;;;;;;;5.87;4.23;;;;;;;13.10;79.50;98353.56;4128599;28;21328;-92
2022/05/15 02:04:21;;;;;;;5.40;4.00;;;;;;;13.08;80.98;98358.94;4127651;28;20704;-92
2022/05/15 02:06:24;;;;;;;5.83;4.10;;;;;;;13.09;81.04;98354.50;4144598;28;20653;-91
2022/05/15 02:08:31;;;;;;;4.33;3.93;;;;;;;13.07;79.80;98357.25;4142924;28;20642;-91
2022/05/15 02:10:35;;;;;;;5.23;4.17;;;;;;;13.03;80.10;98362.81;4131532;28;20682;-92
2022/05/15 02:12:40;;;;;;;5.43;4.57;;;;;;;12.93;80.26;98357.44;4131271;28;20736;-92
2022/05/15 02:14:45;;;;;;;6.00;4.47;;;;;;;12.88;81.47;98353.47;4128505;28;20638;-92
2022/05/15 02:16:49;;;;;;;6.27;4.23;;;;;;;12.86;80.55;98356.19;4127135;28;20722;-92
2022/05/15 02:18:52;;;;;;;4.83;4.20;;;;;;;12.85;81.80;98346.69;4145235;28;20688;-92
2022/05/15 02:20:56;;;;;;;6.60;4.30;;;;;;;12.85;80.34;98348.47;4144274;28;20625;-92
2022/05/15 02:22:59;;;;;;;6.40;4.80;;;;;;;12.83;81.16;98351.19;4128471;28;20640;-92
2022/05/15 02:25:05;;;;;;;4.90;4.20;;;;;;;12.85;81.79;98354.56;4119306;28;20638;-91
2022/05/15 02:27:13;;;;;;;4.60;4.07;;;;;;;12.85;81.57;98354.56;4128416;28;20677;-92
2022/05/15 02:29:18;;;;;;;8.23;5.37;;;;;;;12.80;81.01;98356.63;4127249;28;20661;-92
2022/05/15 02:31:22;;;;;;;7.10;4.40;;;;;;;12.75;81.66;98353.50;4127279;28;20634;-92
2022/05/15 02:33:27;;;;;;;6.73;4.80;;;;;;;12.71;81.99;98354.66;4129615;28;20756;-92
2022/05/15 02:35:30;;;;;;;5.40;4.53;;;;;;;12.67;82.28;98356.78;4114663;28;20653;-92
2022/05/15 02:37:34;;;;;;;6.23;4.63;;;;;;;12.66;82.76;98352.50;4125288;28;20659;-92
2022/05/15 02:39:37;;;;;;;4.27;3.87;;;;;;;12.64;82.03;98349.97;4122886;28;20656;-93
2022/05/15 02:41:41;;;;;;;5.13;4.40;;;;;;;12.64;81.10;98354.41;4126714;28;21032;-92
2022/05/15 02:43:45;;;;;;;5.17;4.50;;;;;;;12.63;81.43;98357.94;4146993;28;21193;-91
2022/05/15 02:45:50;;;;;;;4.33;3.77;;;;;;;12.62;81.88;98362.34;4116103;28;20657;-93
2022/05/15 02:47:54;;;;;;;5.63;4.50;;;;;;;12.62;81.75;98358.91;4135237;28;20626;-93
2022/05/15 02:52:21;;;;;;;5.40;4.37;;;;;;;12.65;81.93;98366.53;4125048;28;20614;-92
2022/05/15 02:54:24;;;;;;;5.47;4.00;;;;;;;12.64;82.63;98364.84;4140533;28;20724;-92
2022/05/15 02:56:31;;;;;;;6.70;4.80;;;;;;;12.65;81.15;98369.16;4141472;28;20647;-92
2022/05/15 02:58:39;;;;;;;6.63;4.07;;;;;;;12.64;83.53;98362.25;4140927;28;20740;-92
2022/05/15 03:00:43;;;;;;;6.40;4.60;;;;;;;12.65;82.96;98361.31;4144435;28;20641;-92
2022/05/15 03:02:48;;;;;;;5.10;4.00;;;;;;;12.60;81.94;98359.03;4140348;28;20648;-92
2022/05/15 03:04:51;;;;;;;6.40;4.33;;;;;;;12.52;82.01;98356.09;4132067;28;20638;-92
2022/05/15 03:06:55;;;;;;;4.90;3.93;;;;;;;12.47;82.12;98357.41;4129240;28;20637;-92
2022/05/15 03:08:58;;;;;;;5.47;4.27;;;;;;;12.40;82.26;98361.38;4143243;28;20727;-92
2022/05/15 03:11:02;;;;;;;7.07;4.20;;;;;;;12.36;81.43;98365.19;4112251;28;21027;-92
2022/05/15 03:13:05;;;;;;;4.23;3.73;;;;;;;12.31;81.80;98362.88;4111151;28;21268;-91
2022/05/15 03:15:12;;;;;;;4.80;4.20;;;;;;;12.24;82.48;98363.44;4126616;28;20621;-91
2022/05/15 03:17:16;;;;;;;5.17;4.60;;;;;;;12.21;82.67;98363.63;4124405;28;20645;-91
2022/05/15 03:19:21;;;;;;;7.30;4.37;;;;;;;12.23;83.86;98366.16;4111200;28;20665;-92
2022/05/15 03:21:31;;;;;;;5.03;4.13;;;;;;;12.22;83.55;98360.06;4130966;28;20644;-92
2022/05/15 03:23:39;;;;;;;5.00;4.43;;;;;;;12.23;83.55;98362.56;4110396;28;21090;-92
2022/05/15 03:25:43;;;;;;;5.43;4.27;;;;;;;12.17;83.47;98353.50;4127609;28;20673;-92
2022/05/15 03:27:46;;;;;;;6.67;4.23;;;;;;;12.13;82.95;98365.09;4140561;28;20627;-92
2022/05/15 03:29:50;;;;;;;5.43;4.53;;;;;;;12.11;83.08;98360.00;4133052;28;20720;-92
2022/05/15 03:31:53;;;;;;;8.03;4.40;;;;;;;12.09;83.79;98355.78;4127929;28;20640;-91
2022/05/15 03:33:57;;;;;;;5.80;4.13;;;;;;;12.10;83.37;98358.31;4114358;28;20658;-91
2022/05/15 03:36:03;;;;;;;5.27;4.13;;;;;;;12.11;84.27;98360.00;4113947;28;20640;-91
2022/05/15 03:38:07;;;;;;;5.50;4.37;;;;;;;12.12;82.73;98361.66;4114253;28;20629;-91
2022/05/15 03:40:14;;;;;;;8.60;4.57;;;;;;;12.13;82.88;98360.72;4115335;28;20713;-91
2022/05/15 03:42:19;;;;;;;6.33;4.57;;;;;;;12.14;83.06;98366.78;4131509;28;20735;-91
2022/05/15 03:44:22;;;;;;;4.60;4.20;;;;;;;12.17;84.40;98358.72;4129589;28;20630;-91
2022/05/15 03:46:25;;;;;;;7.07;5.07;;;;;;;12.18;82.83;98358.63;4129299;28;20645;-91
2022/05/15 03:48:29;;;;;;;7.17;4.70;;;;;;;12.18;84.14;98366.47;4132035;28;20728;-91
2022/05/15 03:50:32;;;;;;;5.83;5.23;;;;;;;12.17;83.53;98364.78;4126108;28;20735;-91
2022/05/15 03:52:37;;;;;;;5.67;4.43;;;;;;;12.19;83.68;98365.50;4132569;28;20645;-91
2022/05/15 03:54:41;;;;;;;6.47;4.93;;;;;;;12.18;84.04;98374.31;4112209;28;21229;-91
2022/05/15 03:56:51;;;;;;;7.13;5.20;;;;;;;12.18;84.42;98371.69;4127916;28;20640;-92
2022/05/15 03:59:00;;;;;;;6.57;4.97;;;;;;;12.11;83.33;98367.84;4131722;28;20632;-91
2022/05/15 04:01:04;;;;;;;5.83;4.80;;;;;;;12.05;83.57;98370.03;4147191;28;20619;-91
2022/05/15 04:03:08;;;;;;;6.80;5.67;;;;;;;12.03;83.81;98371.94;4135841;28;21048;-91
2022/05/15 04:05:12;;;;;;;6.00;5.10;;;;;;;11.99;83.66;98373.09;4117644;28;20669;-91
2022/05/15 04:07:15;;;;;;;5.90;5.00;;;;;;;11.98;84.54;98381.84;4117261;28;20665;-90
2022/05/15 04:09:21;;;;;;;6.60;4.83;;;;;;;11.95;84.20;98382.94;4133556;28;20673;-91
2022/05/15 04:11:25;;;;;;;6.00;5.40;;;;;;;11.96;84.58;98383.75;4130324;28;20644;-91
2022/05/15 04:13:28;;;;;;;7.10;5.20;;;;;;;11.96;83.81;98381.13;4130952;28;20668;-91
2022/05/15 04:15:32;;;;;;;5.70;5.20;;;;;;;11.96;83.53;98381.97;4144866;28;20663;-90
2022/05/15 04:17:41;;;;;;;5.37;4.77;;;;;;;11.97;84.46;98378.41;4128690;28;20665;-91
2022/05/15 04:19:44;;;;;;;6.03;5.00;;;;;;;11.99;84.52;98375.69;4126854;28;20639;-91
2022/05/15 04:21:49;;;;;;;5.87;4.60;;;;;;;12.01;84.10;98368.56;4129301;28;20645;-91
2022/05/15 04:23:53;;;;;;;5.37;4.57;;;;;;;12.02;84.62;98371.09;4145790;28;20781;-91
2022/05/15 04:25:57;;;;;;;6.30;5.30;;;;;;;12.10;84.50;98381.84;4145593;28;21334;-90
2022/05/15 04:28:01;;;;;;;6.80;5.50;;;;;;;12.20;83.65;98376.81;4144198;28;20646;-91
2022/05/15 04:30:06;;;;;;;8.00;5.10;;;;;;;12.29;84.05;98382.22;4143938;28;21313;-91
2022/05/15 04:32:09;;;;;;;8.53;5.60;;;;;;;12.39;84.56;98391.13;4111835;28;20744;-91
2022/05/15 04:34:12;;;;;;;7.07;5.30;;;;;;;12.46;84.75;98387.97;4117189;28;21111;-91
2022/05/15 04:36:16;;;;;;;6.30;5.53;;;;;;;12.52;85.14;98384.88;4109978;28;20649;-91
2022/05/15 04:38:19;;;;;;;7.90;5.37;;;;;;;12.60;84.84;98386.94;4145928;28;20697;-91
2022/05/15 04:40:23;;;;;;;7.47;5.67;;;;;;;12.63;83.65;98384.97;4147906;28;20676;-90
2022/05/15 04:42:28;;;;;;;5.57;4.97;;;;;;;12.67;83.66;98390.81;4112763;28;20646;-91
2022/05/15 04:44:31;;;;;;;7.00;5.60;;;;;;;12.71;83.44;98388.69;4112259;28;20642;-91
2022/05/15 04:46:35;;;;;;;5.70;5.10;;;;;;;12.74;82.64;98393.69;4114555;28;20651;-91
2022/05/15 04:48:39;;;;;;;7.00;5.60;;;;;;;12.79;83.07;98401.22;4138691;28;20633;-91
2022/05/15 04:50:43;;;;;;;7.10;4.87;;;;;;;12.79;82.86;98391.59;4116794;28;20995;-90
2022/05/15 04:52:47;;;;;;;4.83;4.43;;;;;;;12.78;83.02;98396.97;4129019;28;20668;-90
2022/05/15 04:54:50;;;;;;;8.93;4.33;;;;;;;12.77;83.20;98393.47;4110599;28;20730;-91
2022/05/15 04:56:53;;;;;;;6.30;4.70;;;;;;;12.75;83.80;98384.91;4127043;28;20621;-90
2022/05/15 04:58:58;;;;;;;6.40;5.60;;;;;;;12.78;82.15;98394.34;4114615;28;21217;-90
2022/05/15 05:01:02;;;;;;;5.83;5.10;;;;;;;12.82;83.19;98393.16;4115522;28;20634;-90
2022/05/15 05:03:06;;;;;;;6.30;4.97;;;;;;;12.85;82.90;98398.19;4145886;28;21398;-90
2022/05/15 05:05:10;;;;;;;6.50;5.20;;;;;;;12.89;84.63;98392.63;4128730;28;21395;-90
2022/05/15 05:07:13;;;;;;;5.87;4.87;;;;;;;12.95;84.19;98402.66;4129497;28;20673;-90
2022/05/15 05:09:16;;;;;;;7.10;5.30;;;;;;;13.02;85.01;98390.81;4127877;28;20672;-90
2022/05/15 05:11:20;;;;;;;7.80;6.40;;;;;;;13.13;83.47;98396.06;4131647;28;20688;-90
2022/05/15 05:13:24;;;;;;;8.17;5.53;;;;;;;13.22;82.10;98395.41;4127304;28;20670;-90
2022/05/15 05:15:28;;;;;;;10.13;5.60;;;;;;;13.29;83.17;98391.34;4113420;28;20657;-90
2022/05/15 05:17:32;;;;;;;7.40;5.73;;;;;;;13.37;81.47;98391.66;4132008;28;21057;-89
2022/05/15 05:19:36;;;;;;;8.70;6.00;;;;;;;13.44;81.66;98395.47;4130906;28;20642;-90
2022/05/15 05:21:39;;;;;;;6.13;5.53;;;;;;;13.52;81.97;98401.00;4143740;28;20647;-90
2022/05/15 05:23:43;;;;;;;9.13;5.77;;;;;;;13.59;82.17;98400.41;4130934;28;20657;-90
2022/05/15 05:25:46;;;;;;;6.10;5.20;;;;;;;13.68;81.61;98400.53;4133954;28;20687;-90
2022/05/15 05:27:49;;;;;;;10.03;6.90;;;;;;;13.78;80.50;98403.28;4144203;28;20629;-90
2022/05/15 05:29:52;;;;;;;6.93;6.23;;;;;;;13.88;81.29;98401.66;4144100;28;20627;-90
2022/05/15 05:31:57;;;;;;;7.33;6.00;;;;;;;14.04;81.29;98400.31;4128107;28;20639;-90
2022/05/15 05:34:01;;;;;;;7.83;5.77;;;;;;;14.27;81.55;98402.06;4145624;28;20737;-90
2022/05/15 05:36:06;;;;;;;8.17;5.80;;;;;;;14.55;79.73;98410.25;4148442;28;20656;-90
2022/05/15 05:38:09;;;;;;;9.40;6.50;;;;;;;14.89;79.37;98410.06;4142286;28;20626;-90
2022/05/15 05:40:13;;;;;;;8.20;6.00;;;;;;;15.21;77.15;98416.22;4142881;28;20627;-90
2022/05/15 05:42:17;;;;;;;8.50;6.13;;;;;;;15.52;76.61;98420.66;4145382;28;20636;-90
2022/05/15 05:44:21;;;;;;;6.27;5.67;;;;;;;15.84;77.81;98427.50;4126364;28;20639;-90
2022/05/15 05:46:31;;;;;;;8.20;6.30;;;;;;;16.16;76.54;98429.06;4142706;28;20629;-90
2022/05/15 05:48:36;;;;;;;7.80;5.83;;;;;;;16.46;74.57;98431.75;4127328;28;20718;-90
2022/05/15 05:50:39;;;;;;;7.10;6.20;;;;;;;16.73;74.90;98423.13;4143818;28;20668;-91
2022/05/15 05:52:43;;;;;;;8.90;6.50;;;;;;;16.99;73.31;98422.50;4144129;28;20677;-91
2022/05/15 05:54:46;;;;;;;9.40;6.43;;;;;;;17.25;72.08;98436.03;4127016;28;21285;-91
2022/05/15 05:56:50;;;;;;;8.00;6.00;;;;;;;17.49;71.23;98419.63;4143910;28;20639;-91
2022/05/15 05:58:53;;;;;;;7.60;6.27;;;;;;;17.73;71.26;98430.59;4114517;28;20671;-90
2022/05/15 06:00:56;;;;;;;7.57;6.30;;;;;;;17.98;70.00;98430.00;4111930;28;21765;-90
2022/05/15 06:05:23;;;;;;;6.50;5.70;;;;;;;18.46;69.13;98435.06;4131031;28;20631;-91
2022/05/15 06:07:28;;;;;;;7.90;6.40;;;;;;;18.73;70.73;98432.41;4131621;28;20644;-91
2022/05/15 06:09:31;;;;;;;7.93;6.57;;;;;;;18.99;70.75;98433.41;4129541;28;20686;-90
2022/05/15 06:11:35;;;;;;;9.20;6.70;;;;;;;19.21;69.72;98433.84;4127241;28;20627;-90
2022/05/15 06:13:39;;;;;;;6.93;6.20;;;;;;;19.44;69.29;98433.25;4116324;28;20732;-90
2022/05/15 06:15:42;;;;;;;6.73;6.03;;;;;;;19.65;67.88;98431.16;4108518;28;20671;-91
2022/05/15 06:17:45;;;;;;;7.83;6.27;;;;;;;19.87;69.56;98435.97;4128839;28;20751;-90
2022/05/15 06:19:49;;;;;;;7.00;6.30;;;;;;;20.07;68.99;98437.47;4146107;28;20693;-91
2022/05/15 06:21:54;;;;;;;8.73;6.63;;;;;;;20.17;67.23;98424.97;4145963;28;20644;-90
2022/05/15 06:23:58;;;;;;;7.17;5.93;;;;;;;20.35;68.12;98431.84;4130038;28;21247;-91
2022/05/15 06:26:01;;;;;;;7.73;6.30;;;;;;;20.56;67.27;98427.84;4144986;28;20622;-90
2022/05/15 06:28:06;;;;;;;6.67;5.40;;;;;;;20.75;66.22;98429.44;4144102;28;20710;-90
2022/05/15 06:30:12;;;;;;;7.73;5.90;;;;;;;20.84;64.25;98429.34;4125772;28;20643;-91
2022/05/15 06:32:16;;;;;;;7.63;6.10;;;;;;;20.91;64.91;98425.03;4129154;28;21265;-90
2022/05/15 06:34:20;;;;;;;6.00;5.40;;;;;;;21.11;65.60;98431.72;4147219;28;20630;-90
2022/05/15 06:36:23;;;;;;;5.47;4.93;;;;;;;21.25;64.76;98425.81;4133514;28;21225;-89
2022/05/15 06:38:28;;;;;;;6.30;5.30;;;;;;;21.37;63.62;98422.69;4128612;28;20646;-89
2022/05/15 06:40:32;;;;;;;8.50;5.53;;;;;;;21.63;63.97;98432.19;4132507;28;20647;-90
2022/05/15 06:42:35;;;;;;;7.07;5.00;;;;;;;21.66;63.03;98423.09;4137292;28;20641;-91
2022/05/15 06:44:41;;;;;;;10.40;5.27;;;;;;;21.83;63.99;98429.06;4112590;28;20734;-93
2022/05/15 06:46:45;;;;;;;7.27;5.37;;;;;;;22.10;65.27;98427.88;4130246;28;21233;-92
2022/05/15 06:48:49;;;;;;;6.40;5.80;;;;;;;22.37;65.14;98437.19;4132470;28;20734;-90
2022/05/15 06:50:52;;;;;;;7.73;5.10;;;;;;;22.59;63.07;98433.00;4127334;28;20635;-90
2022/05/15 06:52:56;;;;;;;6.80;5.70;;;;;;;22.81;63.25;98433.09;4130459;28;20635;-90
2022/05/15 06:55:01;;;;;;;8.47;5.43;;;;;;;23.02;63.37;98439.50;4125014;28;20663;-90
2022/05/15 06:59:26;;;;;;;5.23;4.73;;;;;;;23.35;61.75;98428.53;4128274;28;20673;-90
2022/05/15 07:01:30;;;;;;;9.23;4.83;;;;;;;23.53;63.57;98422.91;4144854;28;20638;-91
2022/05/15 07:03:33;;;;;;;9.47;5.10;;;;;;;23.71;60.92;98432.31;4133964;28;20709;-90
2022/05/15 07:05:37;;;;;;;6.73;5.30;;;;;;;23.81;59.79;98438.22;4131742;28;21083;-91
2022/05/15 07:07:42;;;;;;;6.50;4.87;;;;;;;23.93;61.02;98426.13;4128900;28;21199;-88
2022/05/15 07:09:47;;;;;;;5.33;4.50;;;;;;;24.06;59.44;98429.84;4124796;28;20763;-89
2022/05/15 07:11:51;;;;;;;7.20;5.00;;;;;;;24.19;59.84;98427.38;4125227;28;20635;-91
2022/05/15 07:13:55;;;;;;;7.47;4.90;;;;;;;24.42;62.28;98430.88;4132719;28;20647;-90
2022/05/15 07:15:59;;;;;;;5.47;4.70;;;;;;;24.62;60.80;98435.47;4128022;28;20668;-89
2022/05/15 07:18:02;;;;;;;6.63;5.20;;;;;;;24.78;62.35;98430.78;4128135;28;20670;-90
2022/05/15 07:20:06;;;;;;;6.97;4.80;;;;;;;25.01;61.42;98420.84;4130616;28;20619;-90
2022/05/15 07:22:10;;;;;;;6.83;4.50;;;;;;;25.16;60.20;98427.81;4133393;28;20642;-89
2022/05/15 07:24:14;;;;;;;10.13;5.40;;;;;;;25.40;60.47;98422.16;4139837;28;20673;-88
2022/05/15 07:26:17;;;;;;;5.90;4.17;;;;;;;25.51;59.10;98423.50;4132530;28;20738;-90
2022/05/15 07:28:22;;;;;;;7.50;4.30;;;;;;;25.67;59.18;98426.81;4112423;28;20660;-90
2022/05/15 07:30:26;;;;;;;6.70;4.30;;;;;;;25.81;59.92;98418.72;4129975;28;20651;-89
2022/05/15 07:32:29;;;;;;;7.53;4.47;;;;;;;25.94;58.86;98421.50;4107019;28;20687;-85
2022/05/15 07:34:33;;;;;;;4.37;3.90;;;;;;;26.02;57.52;98417.88;4125902;28;20627;-83
2022/05/15 07:36:38;;;;;;;5.10;3.83;;;;;;;26.08;57.61;98416.09;4124816;28;20655;-89
2022/05/15 07:38:42;;;;;;;5.40;3.80;;;;;;;26.24;57.29;98414.97;4142873;28;20660;-88
2022/05/15 07:40:45;;;;;;;5.27;4.00;;;;;;;26.42;57.96;98415.38;4123476;28;20635;-88
2022/05/15 07:42:49;;;;;;;8.73;4.10;;;;;;;26.62;57.71;98417.13;4137979;28;20635;-88
2022/05/15 07:44:57;;;;;;;4.20;3.80;;;;;;;26.81;56.49;98416.44;4108066;28;20691;-89
2022/05/15 07:47:01;;;;;;;9.80;3.80;;;;;;;27.01;56.33;98414.72;4112530;28;20695;-90
2022/05/15 07:49:04;;;;;;;6.20;4.03;;;;;;;27.09;55.82;98410.84;4130552;28;20627;-90
2022/05/15 07:51:08;;;;;;;6.30;3.37;;;;;;;27.17;54.03;98410.66;4143146;28;20669;-87
2022/05/15 07:53:11;;;;;;;4.47;3.50;;;;;;;27.33;54.90;98412.97;4128772;28;20647;-87
2022/05/15 07:55:15;;;;;;;6.70;3.13;;;;;;;27.29;52.66;98403.69;4142237;28;20630;-87
2022/05/15 07:57:18;;;;;;;4.57;3.00;;;;;;;27.34;50.36;98401.22;4125010;28;20751;-85
2022/05/15 07:59:22;;;;;;;6.73;3.20;;;;;;;27.35;52.20;98399.38;4125958;28;20651;-87
2022/05/15 08:01:27;;;;;;;5.60;3.10;;;;;;;27.42;50.64;98405.59;4129879;28;20731;-87
2022/05/15 08:03:33;;;;;;;4.53;3.00;;;;;;;27.58;50.80;98406.06;4113335;28;20778;-89
2022/05/15 08:08:03;;;;;;;4.23;3.00;;;;;;;27.71;48.51;98406.09;4125676;28;20678;-85
2022/05/15 08:10:08;;;;;;;5.83;3.10;;;;;;;27.80;49.47;98407.53;4104151;28;20632;-84
2022/05/15 08:12:11;;;;;;;3.90;2.50;;;;;;;27.62;48.85;98401.97;4104263;28;21106;-85
2022/05/15 08:14:16;;;;;;;8.37;2.67;;;;;;;27.66;48.85;98403.19;4126110;28;20643;-86
2022/05/15 08:16:19;;;;;;;5.33;3.90;;;;;;;27.64;48.27;98400.72;4110520;28;20671;-89
2022/05/15 08:25:28;;;;;;;3.23;2.50;;;;;;;27.46;48.73;98390.75;4125103;28;20729;-86
2022/05/15 08:27:31;;;;;;;3.43;2.30;;;;;;;27.52;47.87;98393.47;4125459;28;20626;-88
2022/05/15 08:29:35;;;;;;;3.27;2.40;;;;;;;27.34;48.66;98393.19;4112720;28;24316;-87
2022/05/15 08:31:39;;;;;;;2.97;2.43;;;;;;;27.53;48.85;98387.09;4145398;28;21700;-85
2022/05/15 08:33:45;;;;;;;4.40;2.90;;;;;;;27.64;48.42;98387.31;4140890;28;20705;-84
2022/05/15 08:35:48;;;;;;;4.93;2.60;;;;;;;27.72;47.84;98386.28;4132336;28;20674;-84
2022/05/15 08:37:51;;;;;;;5.17;2.70;;;;;;;27.84;47.71;98390.03;4129084;28;21077;-84
2022/05/15 08:39:55;;;;;;;3.70;2.50;;;;;;;27.91;48.70;98394.38;4112427;28;20643;-85
2022/05/15 08:42:09;;;;;;;6.03;2.93;;;;;;;27.97;47.44;98388.19;4116968;28;21203;-85
2022/05/15 08:44:14;;;;;;;4.47;3.10;;;;;;;28.05;48.20;98393.31;4129202;28;20635;-87
2022/05/15 08:46:32;;;;;;;3.43;2.70;;;;;;;28.21;49.32;98399.16;4129123;28;20634;-86
2022/05/15 08:48:38;;;;;;;5.80;2.60;;;;;;;28.34;48.80;98392.94;4113074;28;20646;-86
2022/05/15 08:50:48;;;;;;;3.00;2.60;;;;;;;28.45;47.82;98390.44;4112400;28;20699;-86
2022/05/15 08:52:57;;;;;;;3.30;2.83;;;;;;;28.61;49.74;98390.84;4127125;28;20637;-85
2022/05/15 08:55:06;;;;;;;3.53;2.37;;;;;;;28.80;51.63;98395.34;4129026;28;20645;-85
2022/05/15 08:57:16;;;;;;;5.13;2.67;;;;;;;28.63;48.08;98387.94;4141176;28;20760;-85
2022/05/15 08:59:23;;;;;;;5.20;2.40;;;;;;;28.46;46.40;98388.59;4112050;28;20636;-85
2022/05/15 09:01:28;;;;;;;4.33;2.47;;;;;;;28.30;46.42;98395.22;4125772;28;20762;-86
2022/05/15 09:03:35;;;;;;;4.47;2.43;;;;;;;28.31;47.10;98393.34;4142309;28;20670;-85
2022/05/15 09:05:39;;;;;;;3.20;2.27;;;;;;;28.47;47.53;98396.44;4124103;28;21247;-83
2022/05/15 09:07:53;;;;;;;4.23;2.90;;;;;;;28.55;46.61;98386.31;4124651;28;22085;-83
2022/05/15 09:10:06;;;;;;;4.37;3.17;;;;;;;28.53;46.17;98382.97;4122917;28;21015;-83
2022/05/15 09:12:16;;;;;;;4.03;2.67;;;;;;;28.59;45.84;98386.69;4140990;28;20828;-83
2022/05/15 09:14:32;;;;;;;5.97;2.10;;;;;;;28.73;48.42;98381.13;4140933;28;20660;-82
2022/05/15 09:16:36;;;;;;;3.80;2.53;;;;;;;28.78;46.05;98377.81;4126244;28;20623;-83
2022/05/15 09:18:40;;;;;;;4.80;2.80;;;;;;;28.67;45.47;98368.53;4110550;28;20679;-83
2022/05/15 09:20:49;;;;;;;3.63;2.70;;;;;;;28.58;45.78;98387.72;4126396;28;20631;-83
2022/05/15 09:22:59;;;;;;;4.40;2.40;;;;;;;28.42;45.89;98376.63;4125775;28;20639;-82
2022/05/15 09:25:04;;;;;;;3.00;2.20;;;;;;;28.43;45.04;98381.78;4114851;28;20758;-81
2022/05/15 09:27:16;;;;;;;3.50;2.10;;;;;;;28.46;45.82;98380.53;4123562;28;20635;-82
2022/05/15 09:29:23;;;;;;;6.47;2.50;;;;;;;28.41;45.01;98385.72;4109173;28;20690;-83
2022/05/15 09:31:29;;;;;;;4.27;2.20;;;;;;;28.30;45.00;98380.97;4124872;28;20670;-82
2022/05/15 09:33:36;;;;;;;3.83;2.23;;;;;;;28.13;44.67;98377.03;4107555;28;20679;-83
2022/05/15 09:35:41;;;;;;;3.70;2.33;;;;;;;28.10;45.36;98375.63;4124856;28;21013;-82
2022/05/15 09:40:11;;;;;;;3.33;2.43;;;;;;;28.07;44.55;98378.69;4127312;28;20637;-82
2022/05/15 09:44:44;;;;;;;3.47;2.50;;;;;;;28.05;45.76;98378.06;4110859;28;20636;-82
2022/05/15 09:46:57;;;;;;;7.20;2.37;;;;;;;28.25;46.21;98370.88;4130783;28;20640;-82
2022/05/15 09:49:05;;;;;;;3.30;2.37;;;;;;;28.24;45.30;98371.88;4145368;28;20700;-82
2022/05/15 09:51:12;;;;;;;4.47;2.53;;;;;;;28.17;46.08;98365.69;4128794;28;21149;-82
2022/05/15 09:53:21;;;;;;;3.53;2.40;;;;;;;28.21;46.57;98364.25;4126644;28;20639;-82
2022/05/15 09:55:28;;;;;;;3.70;2.33;;;;;;;28.25;45.85;98360.13;4123433;28;20627;-82
2022/05/15 09:57:31;;;;;;;6.33;2.60;;;;;;;28.26;45.30;98364.44;4144026;28;20739;-83
2022/05/15 09:59:35;;;;;;;3.40;2.33;;;;;;;28.37;45.74;98358.47;4128392;28;20640;-84
2022/05/15 10:01:40;;;;;;;3.50;2.13;;;;;;;28.48;47.46;98348.91;4133381;28;20631;-86
2022/05/15 10:03:49;;;;;;;3.90;2.40;;;;;;;28.54;45.82;98351.59;4130470;28;20834;-85
2022/05/15 10:05:58;;;;;;;4.50;2.50;;;;;;;28.50;47.52;98342.31;4128771;28;20658;-83
2022/05/15 10:08:04;;;;;;;2.67;2.07;;;;;;;28.51;45.78;98352.84;4136818;28;20693;-83
2022/05/15 10:10:17;;;;;;;3.57;2.20;;;;;;;28.39;45.79;98348.31;4130283;28;20627;-84